Date,TemperatureHighF,TemperatureAvgF,TemperatureLowF,DewpointHighF,DewpointAvgF,DewpointLowF,HumidityHigh,HumidityAvg,HumidityLow,PressureMaxIn,PressureMinIn,WindSpeedMaxMPH,WindSpeedAvgMPH,GustSpeedMaxMPH,PrecipitationSumIn
2013-1-1,78.1,64.8,54.2,68.0,60.4,50.5,93,86,70,30.14,29.96,13,4,13,0.35
2013-1-2,54.2,49.2,45.4,50.5,45.1,42.0,89,86,80,30.29,30.12,10,4,10,0.09
2013-1-3,49.3,45.7,42.5,42.2,36.2,30.8,90,70,49,30.43,30.24,11,4,11,0.26
2013-1-4,55.8,48.7,42.3,39.3,34.0,30.6,71,58,41,30.49,30.37,9,2,9,0.00
2013-1-5,55.4,50.9,46.6,43.7,40.4,37.2,76,67,55,30.39,30.24,8,2,8,0.00
2013-1-6,52.9,50.2,47.0,47.6,45.0,42.1,91,83,67,30.32,30.18,11,3,11,0.76
2013-1-7,60.1,52.0,45.0,48.6,44.4,39.9,88,76,61,30.34,30.19,8,2,8,0.00
2013-1-8,61.6,57.2,52.0,58.8,52.9,44.2,96,86,75,30.22,30.08,11,2,11,0.61
2013-1-9,68.0,64.3,59.9,67.2,62.7,58.7,97,95,91,30.19,30.07,8,2,8,0.65
2013-1-10,69.5,66.4,63.0,68.6,65.1,61.3,97,96,93,30.19,29.98,11,3,11,2.02
2013-1-11,74.9,69.1,64.8,71.6,67.3,63.4,97,94,88,30.10,29.19,11,2,11,0.05
2013-1-12,78.5,72.6,69.5,72.5,69.3,67.1,97,90,75,30.06,29.26,16,4,16,0.00
2013-1-13,76.7,68.1,53.6,72.2,65.4,51.3,96,91,80,30.06,29.84,15,5,15,1.36
2013-1-14,55.3,50.7,44.3,53.6,48.8,42.1,95,94,92,30.12,29.58,11,4,11,0.49
2013-1-15,54.4,50.8,47.3,52.4,49.3,45.6,96,94,92,30.06,29.46,8,2,8,0.18
2013-1-16,48.8,43.3,40.7,47.3,41.0,37.4,96,91,88,30.15,29.41,8,4,8,0.49
2013-1-17,54.0,47.0,39.2,41.4,38.1,35.6,90,72,51,30.28,30.04,13,4,13,0.00
2013-1-18,56.3,47.5,41.4,42.7,38.9,36.3,84,72,56,30.43,30.25,11,2,11,0.01
2013-1-19,65.9,52.9,41.2,48.8,44.1,36.5,87,73,51,30.25,30.07,6,1,6,0.00
2013-1-20,65.0,53.9,45.4,52.9,46.4,41.8,92,77,57,30.13,29.95,7,1,7,0.00
2013-1-21,66.6,55.5,46.1,49.0,45.2,42.5,89,70,46,30.10,29.98,7,1,7,0.00
2013-1-22,62.3,53.4,47.3,45.5,42.1,38.0,80,67,47,30.24,30.05,7,1,7,0.00
2013-1-23,71.3,56.6,44.5,52.4,46.8,40.3,92,72,47,30.29,30.12,10,2,10,0.00
2013-1-24,75.2,60.4,48.6,60.6,52.9,44.9,92,77,58,30.22,30.06,8,2,8,0.00
2013-1-25,75.8,62.7,51.5,61.7,55.7,48.3,94,79,59,30.12,29.96,13,2,13,0.00
2013-1-26,78.3,63.7,53.3,65.5,57.1,50.1,94,80,59,30.11,29.99,6,1,6,0.00
2013-1-27,75.4,64.3,54.9,63.8,58.2,51.7,95,81,64,30.11,30.00,10,2,10,0.00
2013-1-28,78.8,67.7,56.9,67.6,62.4,53.6,95,84,66,30.08,29.91,9,2,9,0.01
2013-1-29,79.6,72.6,67.7,71.2,68.5,64.9,94,87,75,29.91,29.58,15,4,15,0.00
2013-1-30,73.4,61.7,48.8,70.4,52.1,32.1,91,73,46,30.03,29.46,16,6,16,1.29
2013-1-31,61.9,51.4,40.7,37.5,32.8,21.6,76,51,25,30.20,30.02,12,2,12,0.00
2013-2-1,63.5,53.4,45.9,45.2,40.7,35.9,80,63,43,30.28,30.15,8,1,8,0.00
2013-2-2,71.3,56.9,44.8,54.7,47.6,39.2,86,72,52,30.19,30.00,8,2,8,0.00
2013-2-3,68.6,58.2,50.0,51.7,44.2,37.7,87,63,35,30.13,29.94,8,1,8,0.00
2013-2-4,65.9,56.7,49.3,55.9,49.4,41.6,91,77,55,29.95,29.77,5,1,5,1.21
2013-2-5,71.3,62.6,56.2,62.7,57.9,52.5,92,85,72,29.86,29.76,4,1,4,0.00
2013-2-6,69.3,61.0,54.4,61.9,57.1,51.5,95,87,75,29.97,29.74,9,2,9,0.68
2013-2-7,72.9,63.6,56.2,64.4,58.9,52.9,95,85,73,29.77,29.63,14,2,14,1.51
2013-2-8,69.7,60.9,54.4,63.6,56.5,51.8,95,86,74,29.98,29.76,11,2,11,0.02
2013-2-9,66.2,60.5,54.7,60.8,55.1,49.3,91,82,74,30.06,29.85,8,2,8,0.00
2013-2-10,76.0,69.6,63.5,70.5,66.1,60.8,94,89,83,29.87,29.74,17,5,17,0.00
2013-2-11,68.2,62.8,58.3,67.2,60.2,55.3,97,92,85,29.94,29.78,11,3,11,0.25
2013-2-12,74.3,65.5,58.9,71.7,63.3,56.7,96,93,87,29.86,29.56,12,2,12,0.02
2013-2-13,64.6,53.7,48.6,60.6,49.0,42.3,89,84,76,29.93,29.65,11,3,11,0.14
2013-2-14,59.6,50.7,43.0,44.7,42.0,38.9,89,73,49,30.05,29.89,9,1,9,0.00
2013-2-15,65.5,54.0,41.6,50.4,41.7,37.6,90,66,39,30.06,29.90,12,2,12,0.00
2013-2-16,57.2,50.6,41.6,41.9,31.9,21.9,73,51,28,30.15,30.00,13,4,13,0.01
2013-2-17,63.4,50.1,38.5,38.7,34.4,28.4,72,57,33,30.21,30.05,10,2,10,0.00
2013-2-18,67.5,58.7,47.0,59.1,50.9,37.7,87,76,60,30.09,29.83,17,4,17,0.01
2013-2-19,67.1,61.1,52.6,60.9,47.3,32.1,92,64,31,30.08,29.81,15,5,15,0.24
2013-2-20,61.0,53.4,46.1,39.9,34.5,27.6,57,49,39,30.13,29.86,12,3,12,0.00
2013-2-21,76.5,65.4,55.1,67.7,57.8,38.2,93,77,53,29.87,29.62,21,5,21,0.05
2013-2-22,69.8,64.7,57.8,67.7,58.7,50.2,93,82,62,29.80,29.68,10,2,10,0.14
2013-2-23,60.5,58.4,56.0,56.1,55.0,52.8,93,89,84,29.79,29.68,10,2,10,1.62
2013-2-24,66.1,59.5,52.0,60.0,55.0,48.2,96,85,74,29.81,29.54,9,2,9,1.27
2013-2-25,66.6,63.2,59.2,64.5,60.6,48.2,96,91,69,29.57,29.29,12,4,12,1.46
2013-2-26,62.5,55.2,47.0,49.5,42.1,37.1,77,62,47,29.78,29.41,16,4,16,0.00
2013-2-27,72.2,59.0,47.9,51.1,46.1,41.3,88,65,39,29.91,29.76,9,2,9,0.00
2013-2-28,58.5,53.5,46.4,45.2,36.8,32.1,69,54,39,30.01,29.87,10,3,10,0.00
2013-3-1,64.1,53.1,45.7,40.8,35.6,30.3,71,53,32,30.03,29.89,12,3,12,0.00
2013-3-2,54.5,46.0,39.4,35.4,30.6,26.2,72,56,43,30.12,29.98,13,3,13,0.00
2013-3-3,57.4,46.3,36.2,34.9,30.0,26.0,69,54,39,30.18,29.99,9,2,9,0.00
2013-3-4,70.9,57.6,40.7,55.8,47.6,34.0,84,70,53,30.01,29.78,16,4,16,0.00
2013-3-5,77.4,66.6,55.8,64.0,54.0,37.6,87,66,38,30.02,29.78,14,4,14,0.00
2013-3-6,64.6,55.3,46.8,41.7,32.3,28.4,62,43,27,30.21,30.02,13,4,13,0.00
2013-3-7,64.6,54.2,43.4,41.8,37.4,32.1,73,54,34,30.24,30.07,9,1,9,0.00
2013-3-8,73.1,57.8,43.6,51.1,43.6,37.6,82,61,38,30.19,30.01,8,1,8,0.00
2013-3-9,73.1,63.0,52.2,59.9,54.2,43.9,84,74,60,30.03,29.76,13,3,13,0.00
2013-3-10,76.7,69.5,61.4,67.7,63.1,57.3,89,80,66,29.82,29.68,16,4,16,0.07
2013-3-11,68.2,56.0,47.9,64.8,48.7,40.7,91,77,55,29.88,29.66,13,4,13,0.67
2013-3-12,67.1,56.4,47.0,44.1,40.9,38.6,74,58,37,30.06,29.88,11,2,11,0.00
2013-3-13,69.1,57.7,45.5,52.2,37.9,29.3,81,51,26,30.28,30.05,12,2,12,0.00
2013-3-14,66.8,57.4,48.2,40.1,33.1,26.3,62,42,25,30.33,30.16,10,2,10,0.00
2013-3-15,76.7,61.4,46.4,54.3,44.6,39.2,81,57,32,30.19,29.97,14,3,14,0.00
2013-3-16,80.1,65.4,51.8,63.3,53.3,45.2,87,67,43,30.00,29.78,13,3,13,0.00
2013-3-17,79.7,68.0,59.4,66.6,60.4,54.3,88,77,52,29.82,29.65,11,3,11,0.00
2013-3-18,85.9,74.2,67.9,71.2,66.2,61.9,91,77,56,29.71,29.54,12,3,12,0.00
2013-3-19,77.6,68.3,60.5,64.4,57.2,51.0,84,69,52,29.84,29.67,15,3,15,0.00
2013-3-20,70.6,62.7,57.4,59.1,45.8,36.2,86,55,31,30.00,29.76,12,3,12,0.01
2013-3-21,70.0,59.6,50.4,46.7,40.2,35.3,68,50,33,29.92,29.70,9,2,9,0.00
2013-3-22,80.5,68.8,57.2,68.5,61.1,46.7,84,77,66,29.72,29.57,10,2,10,0.00
2013-3-23,80.5,71.6,65.5,72.3,67.4,62.6,92,87,75,29.64,29.36,9,2,9,0.00
2013-3-24,77.6,68.0,52.2,69.4,54.3,32.4,91,64,31,29.80,29.38,13,2,13,0.00
2013-3-25,62.1,51.9,42.1,34.7,29.9,22.2,66,45,22,30.11,29.80,11,1,11,0.00
2013-3-26,58.7,51.0,41.9,30.4,27.9,23.5,58,42,31,30.30,30.11,10,3,10,0.00
2013-3-27,62.1,52.4,40.0,41.8,35.0,29.3,68,53,38,30.34,30.12,11,2,11,0.00
2013-3-28,72.7,56.8,42.7,51.3,43.7,36.7,83,64,39,30.25,30.09,10,1,10,0.00
2013-3-29,76.9,62.7,48.1,58.1,51.1,42.9,85,68,44,30.19,30.01,11,2,11,0.00
2013-3-30,78.5,66.6,54.7,64.4,56.0,50.0,89,70,47,30.04,29.85,10,0,10,0.00
2013-3-31,84.1,67.1,59.4,67.8,59.9,54.9,91,79,53,29.88,29.69,7,1,7,0.23
2013-4-1,75.4,66.0,59.8,62.6,57.6,53.5,91,76,53,29.92,29.74,10,1,10,0.01
2013-4-2,79.6,67.9,56.3,63.3,58.0,52.0,89,72,42,29.94,29.74,9,1,9,0.00
2013-4-3,69.5,63.7,58.3,64.4,59.9,54.6,93,88,79,29.83,29.56,10,1,10,2.05
2013-4-4,68.2,58.7,52.9,58.1,52.8,46.8,91,81,66,29.86,29.72,6,1,6,0.01
2013-4-5,67.5,57.0,50.4,51.7,48.2,44.3,85,73,54,30.02,29.86,1,0,1,0.00
2013-4-6,76.5,62.8,49.1,59.1,52.0,45.1,91,70,47,30.02,29.89,8,0,8,0.00
2013-4-7,81.2,68.3,55.6,65.0,57.4,51.1,90,70,48,29.95,29.79,8,0,8,0.00
2013-4-8,84.8,72.2,60.1,68.7,63.2,56.3,91,74,55,29.84,29.72,11,2,11,0.00
2013-4-9,83.2,76.5,71.8,73.6,70.4,67.2,89,82,71,29.81,29.69,14,2,14,0.00
2013-4-10,87.5,77.6,71.6,73.8,70.3,67.8,88,79,63,29.75,29.60,15,3,15,0.00
2013-4-11,78.5,69.5,56.9,74.0,64.9,51.4,91,85,78,29.64,29.42,17,4,17,1.42
2013-4-12,76.7,63.2,53.3,52.1,49.5,47.3,83,63,39,29.81,29.64,11,2,11,0.00
2013-4-13,79.4,67.2,55.3,58.5,52.1,49.1,82,61,37,29.87,29.63,5,0,5,0.00
2013-4-14,78.1,67.6,60.5,64.0,60.2,55.7,93,78,59,29.69,29.52,17,2,17,3.10
2013-4-15,80.6,70.9,60.1,74.2,66.9,56.9,94,87,79,29.76,29.59,12,1,12,0.04
2013-4-16,88.7,78.1,72.7,76.2,72.2,69.7,93,83,64,29.86,29.74,13,3,13,0.00
2013-4-17,88.0,78.5,72.0,74.8,71.5,69.1,92,80,62,29.86,29.72,14,2,14,0.00
2013-4-18,84.8,77.6,72.0,74.6,71.4,68.0,88,81,70,29.73,29.58,15,4,15,0.00
2013-4-19,76.0,56.6,51.7,72.2,49.8,41.2,89,78,62,30.03,29.59,13,3,13,0.93
2013-4-20,70.2,59.6,51.1,44.9,41.5,35.7,72,53,33,30.13,29.94,10,2,10,0.00
2013-4-21,76.7,63.5,51.5,56.6,49.8,44.1,79,62,42,30.04,29.91,6,0,8,0.00
2013-4-22,80.8,67.7,54.4,66.2,58.6,48.6,87,73,57,29.96,29.81,8,0,8,0.00
2013-4-23,86.0,74.8,65.5,70.6,66.1,61.8,89,75,57,29.88,29.75,10,0,10,0.00
2013-4-24,72.0,70.1,67.5,69.2,66.4,64.0,93,88,82,29.88,29.76,11,0,11,1.62
2013-4-25,72.4,68.2,64.4,60.3,56.3,50.9,72,66,61,30.06,30.02,2,0,2,0.00
2013-4-26,82.3,71.7,62.3,65.4,59.6,51.0,81,66,52,30.07,29.98,8,0,8,0.00
2013-4-27,87.8,75.7,67.7,72.1,67.2,62.4,89,76,54,29.98,29.81,8,1,8,0.00
2013-4-28,77.2,71.1,65.2,72.2,66.7,61.8,91,86,77,29.85,29.71,6,0,6,3.00
2013-4-29,83.9,71.2,61.7,70.8,64.6,59.4,94,81,55,29.77,29.64,8,1,8,0.00
2013-4-30,78.5,70.4,65.3,72.0,66.5,62.4,94,87,76,29.70,29.61,11,1,11,0.70
2013-5-1,76.9,70.7,66.2,72.0,67.3,63.5,94,89,79,29.68,29.59,8,1,8,0.65
2013-5-2,81.9,71.2,64.8,71.5,66.4,62.2,94,85,68,29.73,29.62,10,1,10,0.19
2013-5-3,69.1,62.7,51.8,65.7,57.1,43.0,93,82,71,29.83,29.66,13,3,13,0.05
2013-5-4,74.0,60.4,46.1,52.7,46.0,41.2,87,62,35,29.86,29.68,9,2,9,0.00
2013-5-5,69.7,62.0,56.7,53.4,47.6,42.4,83,61,41,29.85,29.68,14,2,14,0.00
2013-5-6,78.8,64.8,50.4,54.2,49.2,42.4,80,59,38,29.89,29.73,9,2,9,0.00
2013-5-7,85.0,70.8,57.2,64.4,57.2,51.9,87,64,43,29.87,29.75,8,1,8,0.00
2013-5-8,87.5,73.2,60.7,67.6,60.6,55.5,88,67,42,29.92,29.81,10,2,10,0.00
2013-5-9,86.4,74.7,63.2,70.4,64.9,58.8,89,73,50,29.91,29.80,10,2,10,0.00
2013-5-10,73.1,68.8,63.5,69.1,65.2,60.9,92,88,82,29.87,29.66,10,1,10,2.50
2013-5-11,76.5,70.0,63.0,70.8,65.9,60.7,94,87,76,29.87,29.73,7,1,7,0.88
2013-5-12,80.6,71.9,66.1,65.1,60.5,54.5,91,69,47,29.92,29.81,11,2,11,0.00
2013-5-13,82.1,70.2,61.6,55.3,51.1,45.5,72,53,32,30.10,29.92,8,2,8,0.00
2013-5-14,87.5,72.0,57.6,64.4,55.8,50.8,85,61,30,30.09,29.94,8,1,8,0.00
2013-5-15,87.8,73.8,61.6,68.3,60.6,56.3,86,66,40,30.00,29.80,10,1,10,0.00
2013-5-16,87.1,76.6,66.2,69.8,66.0,60.6,87,71,52,29.83,29.68,12,1,12,0.00
2013-5-17,90.5,80.5,73.8,75.1,71.1,69.2,87,74,54,29.81,29.71,11,0,11,0.00
2013-5-18,91.3,81.5,74.2,76.5,71.5,68.8,89,73,52,29.83,29.75,9,1,9,0.00
2013-5-19,88.0,79.7,73.8,76.2,72.5,69.0,89,79,65,29.79,29.71,10,2,10,0.00
2013-5-20,92.9,81.9,74.3,77.4,73.4,70.7,92,77,59,29.78,29.68,11,2,11,0.00
2013-5-21,92.2,81.6,72.7,76.3,72.0,68.9,90,74,54,29.75,29.60,13,2,13,0.00
2013-5-22,79.6,74.2,68.8,72.4,69.3,65.1,91,85,76,29.79,29.61,9,1,10,0.61
2013-5-23,93.1,78.3,68.4,78.5,70.9,65.6,94,79,55,29.82,29.73,7,1,7,0.01
2013-5-24,92.9,80.6,69.5,74.1,69.1,65.1,89,69,51,29.92,29.79,8,1,8,0.01
2013-5-25,90.0,79.5,70.7,69.3,64.6,60.1,75,61,48,29.99,29.89,6,0,6,0.00
2013-5-26,83.5,72.5,68.4,71.6,64.4,61.0,86,76,60,29.96,29.88,2,0,2,0.00
2013-5-27,90.7,78.5,66.8,74.3,67.3,60.8,89,70,53,29.91,29.79,12,2,12,0.00
2013-5-28,90.9,79.5,70.6,70.9,67.0,61.1,81,67,49,29.85,29.77,10,2,10,0.00
2013-5-29,89.8,78.5,74.0,75.4,72.0,68.7,91,81,58,29.79,29.71,11,2,11,4.94
2013-5-30,88.2,79.9,74.3,76.4,73.4,71.7,92,81,65,29.78,29.69,11,2,11,0.05
2013-5-31,94.0,83.2,75.2,79.7,74.5,72.2,92,76,55,29.79,29.69,12,3,12,0.04
2013-6-1,95.2,83.5,75.2,78.8,74.4,71.6,91,75,54,29.74,29.67,11,3,11,0.00
2013-6-2,86.8,78.4,71.5,75.5,72.1,66.9,89,81,68,29.79,29.62,12,1,12,0.27
2013-6-3,94.0,82.1,72.0,77.4,71.9,68.4,92,73,47,29.71,29.59,8,1,8,0.00
2013-6-4,92.2,81.9,74.7,79.0,74.3,70.5,90,78,61,29.70,29.61,11,1,11,1.50
2013-6-5,92.7,83.0,75.2,78.0,73.8,71.5,89,75,59,29.68,29.57,9,1,9,0.00
2013-6-6,96.1,81.2,73.8,78.0,72.2,67.6,88,75,50,29.64,29.50,8,1,8,0.35
2013-6-7,91.1,80.4,71.8,73.8,70.3,67.8,89,73,53,29.66,29.55,6,1,6,0.01
2013-6-8,93.6,82.8,73.4,77.0,72.1,68.0,87,71,54,29.74,29.64,9,2,9,0.00
2013-6-9,90.7,80.4,75.1,78.2,73.5,69.7,90,80,61,29.75,29.65,11,2,11,0.33
2013-6-10,93.2,82.7,77.4,80.0,76.0,71.6,90,81,59,29.81,29.72,8,1,9,0.32
2013-6-11,94.9,84.7,76.0,80.3,75.6,73.1,92,75,55,29.86,29.76,8,1,8,0.00
2013-6-12,97.4,85.2,75.1,80.2,73.7,70.1,90,70,45,29.88,29.76,7,1,7,0.00
2013-6-13,97.2,85.6,75.4,78.3,73.6,70.9,89,69,48,29.84,29.66,7,1,7,0.00
2013-6-14,98.3,87.7,78.7,80.3,75.5,69.8,87,69,51,29.72,29.58,9,2,9,0.00
2013-6-15,95.4,83.7,77.9,78.1,73.1,67.4,83,71,55,29.78,29.68,7,1,7,0.94
2013-6-16,96.3,83.9,76.9,82.0,75.9,72.4,90,78,56,29.82,29.72,8,1,8,0.03
2013-6-17,94.3,83.8,75.6,81.1,74.3,70.2,89,74,54,29.79,29.68,12,1,12,0.01
2013-6-18,97.0,84.9,74.3,78.2,71.3,65.5,88,66,41,29.80,29.64,9,2,9,0.00
2013-6-19,89.8,82.3,75.6,77.2,72.5,69.5,85,73,61,29.81,29.71,9,1,9,0.00
2013-6-20,91.4,80.1,74.7,78.7,72.8,69.3,87,79,63,29.91,29.78,7,1,10,0.53
2013-6-21,95.4,83.0,72.4,77.9,71.2,68.2,92,70,45,29.88,29.79,9,1,9,0.01
2013-6-22,91.8,82.8,75.2,78.9,72.7,70.3,88,72,55,29.87,29.75,8,1,8,0.00
2013-6-23,96.7,82.8,74.0,79.5,73.0,69.8,88,73,49,29.83,29.76,8,1,8,0.00
2013-6-24,95.4,84.7,75.2,79.5,73.8,70.5,87,71,50,29.90,29.80,10,2,10,0.08
2013-6-25,97.2,85.5,76.7,80.6,74.4,71.2,86,71,51,29.87,29.76,9,2,9,0.00
2013-6-26,95.8,84.6,76.7,80.1,75.2,71.1,87,74,54,29.83,29.72,9,1,9,0.10
2013-6-27,96.7,86.5,77.2,81.5,76.2,72.7,88,73,53,29.79,29.67,6,1,6,0.00
2013-6-28,99.7,87.9,79.6,79.9,76.3,73.4,87,70,46,29.71,29.53,8,2,8,0.00
2013-6-29,91.1,82.6,73.4,77.3,75.0,69.7,90,78,61,29.64,29.46,9,2,9,1.48
2013-6-30,95.8,84.3,73.6,79.0,68.2,58.7,89,62,33,29.57,29.48,8,1,8,0.00
2013-7-1,92.2,83.0,74.5,70.7,66.5,64.1,81,59,41,29.68,29.56,5,1,8,0.16
2013-7-2,91.6,82.2,74.7,70.4,68.4,65.7,81,64,43,29.75,29.65,9,1,9,0.00
2013-7-3,88.9,80.4,75.2,75.4,70.6,67.4,85,73,56,29.78,29.68,8,1,8,0.06
2013-7-4,89.6,82.1,74.9,76.5,72.9,70.5,88,75,58,29.74,29.68,9,1,9,0.01
2013-7-5,79.7,76.4,73.4,74.0,71.6,69.7,90,85,79,29.82,29.71,9,1,9,0.70
2013-7-6,86.4,78.8,73.3,79.7,74.1,70.2,93,86,74,29.78,29.71,9,1,9,0.35
2013-7-7,90.0,79.2,74.5,80.6,74.5,71.1,93,86,69,29.88,29.73,10,1,10,0.50
2013-7-8,92.2,78.9,74.2,81.1,74.9,71.7,94,88,69,29.92,29.82,10,1,10,2.01
2013-7-9,95.2,82.6,72.7,79.1,74.1,70.3,95,77,49,29.95,29.83,8,1,8,0.00
2013-7-10,97.6,85.0,75.8,80.6,74.7,72.2,90,73,47,29.87,29.74,8,1,8,0.00
2013-7-11,91.8,80.5,73.8,80.7,74.4,70.4,89,82,65,29.76,29.64,9,1,9,0.25
2013-7-12,97.0,83.1,72.0,77.9,73.3,69.2,94,74,51,29.72,29.58,10,1,10,0.00
2013-7-13,94.7,84.3,74.9,78.1,72.7,69.8,87,69,49,29.69,29.61,9,1,9,0.00
2013-7-14,93.1,82.9,75.2,78.0,72.6,69.9,84,72,52,29.77,29.66,8,1,8,0.06
2013-7-15,94.0,81.0,75.6,78.6,73.3,70.1,89,78,54,29.85,29.74,8,1,8,0.38
2013-7-16,87.8,80.5,75.6,78.0,74.4,71.8,91,82,66,29.91,29.80,8,1,8,0.02
2013-7-17,93.8,83.8,75.6,79.4,73.1,68.9,91,72,52,29.94,29.86,10,1,10,0.00
2013-7-18,95.4,80.8,74.9,77.2,72.4,67.7,89,77,50,29.89,29.75,12,1,12,2.32
2013-7-19,93.1,81.7,72.7,78.5,73.1,69.9,94,77,51,29.83,29.68,8,1,10,0.00
2013-7-20,91.8,80.8,74.9,78.9,73.7,71.0,90,80,58,29.77,29.71,9,0,9,0.02
2013-7-21,81.4,79.1,77.8,76.1,74.5,73.3,89,86,82,29.81,29.77,5,1,5,0.00
2013-7-22,95.0,83.6,76.7,82.9,76.9,73.9,92,81,62,29.84,29.75,10,2,10,0.04
2013-7-23,96.3,85.2,76.9,81.2,76.0,73.4,92,75,53,29.82,29.69,10,2,10,0.01
2013-7-24,95.4,85.3,77.0,80.7,75.7,72.9,89,74,53,29.75,29.63,12,2,12,0.00
2013-7-25,94.3,86.8,79.6,80.2,74.7,71.5,85,68,53,29.79,29.66,8,1,8,0.00
2013-7-26,96.1,86.9,76.3,78.2,72.8,69.5,82,64,47,29.82,29.70,8,1,8,0.00
2013-7-27,83.9,80.3,75.8,79.0,75.1,71.6,89,84,76,29.73,29.60,13,1,13,0.38
2013-7-28,92.5,83.8,75.2,79.7,74.4,72.0,92,75,54,29.76,29.65,10,1,10,0.00
2013-7-29,95.8,86.8,76.3,82.3,74.6,71.5,89,68,49,29.85,29.73,8,1,8,0.00
2013-7-30,94.9,85.4,79.0,79.8,76.0,73.2,86,74,57,29.90,29.80,7,1,7,0.05
2013-7-31,94.9,84.9,78.3,82.5,76.4,73.3,88,76,63,29.85,29.72,8,1,8,0.00
2013-8-1,95.0,87.0,78.1,80.7,76.0,72.5,87,71,53,29.76,29.64,7,1,8,0.00
2013-8-2,95.2,86.0,78.1,81.1,75.8,72.5,86,73,53,29.76,29.65,8,1,8,0.00
2013-8-3,94.9,85.1,76.7,82.5,75.8,71.8,88,74,63,29.83,29.73,8,1,8,0.00
2013-8-4,96.1,86.5,77.6,82.0,75.2,69.9,89,70,45,29.86,29.72,8,1,8,0.00
2013-8-5,97.2,87.7,79.0,82.3,76.8,73.3,85,71,54,29.81,29.68,7,1,7,0.00
2013-8-6,97.7,90.0,78.8,82.6,77.8,74.3,87,68,51,29.76,29.66,8,2,8,0.00
2013-8-7,98.8,88.9,79.0,82.1,76.4,73.4,86,68,50,29.74,29.61,7,1,7,0.00
2013-8-8,98.1,87.7,80.1,81.7,76.3,73.4,86,70,56,29.71,29.62,11,1,11,0.00
2013-8-9,93.1,84.2,79.2,80.4,75.9,73.3,86,76,60,29.76,29.65,8,1,8,0.04
2013-8-10,97.6,85.8,77.9,81.9,75.2,72.4,89,72,53,29.81,29.73,11,1,11,0.02
2013-8-11,97.6,84.1,77.9,81.0,75.7,72.7,85,76,58,29.86,29.79,9,1,9,0.43
2013-8-12,97.6,83.8,77.4,85.1,76.3,72.9,92,79,63,29.85,29.77,8,1,8,0.00
2013-8-13,94.7,81.6,75.2,85.3,75.9,71.8,92,83,65,29.82,29.70,6,1,8,1.46
2013-8-14,81.9,76.6,73.8,78.9,73.6,71.4,93,90,87,29.76,29.67,9,1,9,1.17
2013-8-15,89.3,81.4,73.8,81.1,74.2,71.6,95,80,63,29.75,29.65,8,1,8,0.00
2013-8-16,90.0,82.6,75.6,78.5,73.4,70.2,90,75,56,29.73,29.64,10,1,10,0.00
2013-8-17,85.0,80.1,76.9,76.9,72.9,70.0,88,79,69,29.73,29.65,12,2,12,0.00
2013-8-18,83.5,79.0,75.2,75.0,72.5,70.3,88,81,73,29.75,29.66,11,2,11,0.00
2013-8-19,87.5,79.2,71.8,78.7,73.3,68.2,92,82,70,29.81,29.71,11,1,11,0.25
2013-8-20,90.7,80.3,73.4,80.6,74.9,71.0,94,84,67,29.82,29.73,8,1,8,0.18
2013-8-21,88.2,78.3,75.1,80.3,74.8,72.6,93,89,71,29.86,29.77,5,0,5,0.78
2013-8-22,89.5,80.8,73.1,81.0,74.8,70.7,95,83,65,29.84,29.70,9,1,9,0.01
2013-8-23,88.2,80.5,75.8,77.6,72.7,70.5,91,78,67,29.76,29.67,6,0,6,0.20
2013-8-24,81.7,78.0,74.9,75.1,72.3,70.4,90,82,75,29.84,29.71,6,1,7,0.20
2013-8-25,83.9,78.2,75.2,77.0,73.0,70.7,89,84,74,29.91,29.81,6,1,6,0.41
2013-8-26,84.1,78.6,74.3,75.7,71.1,66.5,88,78,66,29.94,29.83,10,1,10,0.19
2013-8-27,87.8,79.7,71.5,72.9,67.3,62.8,80,67,52,29.88,29.78,9,1,9,0.00
2013-8-28,87.8,79.0,69.8,70.7,64.6,61.1,75,62,47,29.86,29.76,8,1,8,0.00
2013-8-29,89.6,80.2,70.2,71.5,65.8,60.3,73,62,49,29.84,29.72,8,1,8,0.00
2013-8-30,91.8,82.3,72.9,73.9,68.3,63.2,74,63,54,29.81,29.67,6,1,6,0.00
2013-8-31,92.9,83.9,75.6,75.4,69.8,65.3,71,63,56,29.75,29.60,5,1,7,0.00
2013-9-1,94.3,85.0,76.0,75.9,69.9,65.1,70,61,53,29.70,29.60,8,1,8,0.00
2013-9-2,95.4,85.6,77.4,76.2,69.3,65.2,66,59,53,29.74,29.59,7,1,7,0.00
2013-9-3,94.7,84.2,77.8,74.7,66.9,61.7,63,56,51,29.74,29.59,11,1,11,0.08
2013-9-4,90.9,80.9,74.9,66.0,58.1,48.4,57,46,38,29.81,29.68,13,1,13,0.40
2013-9-5,87.3,80.5,74.5,52.5,37.4,18.5,38,23,11,29.86,29.77,9,1,9,0.47
2013-9-6,90.0,81.0,74.9,68.0,23.0,14.7,49,8,1,29.86,29.72,10,1,10,0.51
2013-9-7,89.6,80.6,74.5,67.3,23.8,14.4,49,8,1,29.82,29.73,4,1,4,0.01
2013-9-8,90.7,79.8,73.1,66.3,23.4,13.4,45,7,1,29.77,29.69,6,1,6,0.00
2013-9-9,90.9,80.8,72.5,70.7,30.5,13.0,52,15,1,29.81,29.71,8,1,8,0.01
2013-9-10,88.0,81.2,73.3,39.7,22.1,13.5,19,6,1,29.88,29.76,7,1,7,0.00
2013-9-11,90.4,82.6,74.7,69.8,35.0,14.6,51,18,1,29.86,29.76,7,2,7,0.00
2013-9-12,91.8,82.7,74.0,70.6,36.1,14.0,50,19,1,29.81,29.66,9,2,9,0.00
2013-9-13,91.4,84.4,73.8,70.0,37.8,14.0,50,19,1,29.70,29.57,9,2,9,0.00
2013-9-14,88.4,81.9,77.4,40.2,20.4,16.7,21,2,1,29.72,29.61,13,2,13,0.00
2013-9-15,90.7,82.4,74.9,54.8,23.2,14.7,30,5,1,29.79,29.69,9,1,9,0.00
2013-9-16,89.5,82.2,74.5,49.6,22.3,14.4,26,4,1,29.83,29.74,10,2,10,0.00
2013-9-17,90.9,82.7,75.4,67.3,28.2,15.1,47,10,1,29.83,29.70,9,2,10,0.00
2013-9-18,85.7,81.1,78.1,23.0,19.4,17.1,1,1,1,29.81,29.72,12,2,12,1.23
2013-9-19,86.8,79.8,76.0,23.8,18.5,15.5,1,1,1,29.81,29.70,12,2,12,0.63
2013-9-20,90.4,81.9,76.3,26.5,20.1,15.7,3,1,1,29.74,29.55,11,2,11,0.05
2013-9-21,79.9,77.2,73.8,18.6,16.5,13.8,1,1,1,29.58,29.46,10,1,10,2.30
2013-9-22,80.3,75.0,71.3,32.1,15.4,12.0,21,2,1,29.57,29.47,11,3,11,0.01
2013-9-23,88.4,79.6,71.6,28.4,18.5,-1.4,16,2,1,29.59,29.52,9,2,9,0.03
2013-9-24,90.7,82.4,77.9,26.8,20.4,17.0,1,1,1,29.61,29.47,12,1,12,0.11
2013-9-25,88.7,80.3,72.9,66.3,28.2,13.2,49,12,1,29.60,29.50,8,1,8,0.00
2013-9-26,86.8,77.8,69.1,66.2,33.2,10.3,51,20,1,29.69,29.56,9,1,9,0.00
2013-9-27,88.6,78.6,69.7,64.3,24.9,-12.3,45,10,1,29.75,29.66,11,1,11,0.00
2013-9-28,85.9,77.7,70.2,51.5,22.5,-13.3,32,8,1,29.81,29.71,8,1,8,0.00
2013-9-29,84.6,77.2,68.0,60.2,24.7,9.5,49,11,1,29.77,29.67,8,1,8,0.00
2013-9-30,83.5,77.7,74.5,21.2,16.9,14.4,1,1,1,29.69,29.63,7,1,7,0.66
2013-10-1,83.2,77.9,73.4,21.1,17.0,13.7,1,1,1,29.75,29.65,8,1,8,0.01
2013-10-2,83.7,78.0,74.7,21.4,17.1,14.6,1,1,1,29.76,29.67,8,1,8,0.10
2013-10-3,89.8,79.4,73.1,46.4,18.4,13.4,23,2,1,29.74,29.63,10,1,10,0.10
2013-10-4,87.8,78.8,72.7,46.8,17.9,13.2,25,1,1,29.72,29.64,10,2,10,0.50
2013-10-5,86.8,79.1,74.9,27.3,17.9,-3.3,12,1,1,29.67,29.56,12,2,12,0.26
2013-10-6,86.4,76.6,68.8,46.5,19.9,13.2,45,6,1,29.63,29.48,11,2,11,0.00
2013-10-7,75.2,69.5,64.3,55.9,46.0,6.9,54,44,12,29.70,29.60,14,2,14,0.00
2013-10-8,75.6,68.5,63.2,57.2,30.7,5.8,54,28,1,29.73,29.63,11,2,11,0.00
2013-10-9,79.9,70.2,60.1,59.7,23.8,3.4,52,16,1,29.76,29.66,8,1,8,0.00
2013-10-10,80.8,73.5,65.9,19.1,13.7,-18.7,1,1,1,29.76,29.62,6,1,6,0.00
2013-10-11,84.8,74.8,68.2,22.1,14.5,-18.6,1,1,1,29.67,29.55,8,1,8,0.20
2013-10-12,87.3,77.7,70.2,46.8,16.5,-20.9,26,3,1,29.72,29.32,6,1,6,0.00
2013-10-13,85.3,79.0,74.0,57.0,24.5,-18.8,40,10,1,29.89,29.46,7,0,7,0.00
2013-10-14,83.7,76.5,70.6,63.0,31.4,11.3,51,19,1,29.88,29.77,7,0,7,0.00
2013-10-15,86.0,76.1,68.2,61.8,21.5,9.6,45,8,1,29.82,29.69,11,1,11,0.01
2013-10-16,83.5,75.0,70.2,21.2,9.1,-20.3,1,1,1,29.75,29.58,7,1,7,0.00
2013-10-17,80.6,75.4,69.1,19.1,2.7,-21.6,1,1,1,29.72,29.59,5,2,5,0.00
2013-10-18,74.2,69.6,66.6,15.9,8.0,-22.8,12,3,1,29.68,29.57,7,3,7,0.00
2013-10-19,78.3,69.2,62.8,17.3,10.4,5.5,3,1,1,29.78,29.71,7,1,7,0.01
2013-10-20,74.0,66.0,60.8,50.5,12.7,4.0,44,7,1,29.86,29.74,9,2,9,0.00
2013-10-21,77.4,68.1,61.2,16.5,9.5,4.2,1,1,1,29.83,29.73,7,1,7,0.01
2013-10-22,78.8,71.6,65.5,55.3,21.4,7.4,45,12,1,29.78,29.67,11,2,11,0.00
2013-10-23,75.1,66.8,59.9,56.6,31.4,3.2,54,29,1,29.91,29.76,11,2,11,0.00
2013-10-24,70.4,57.9,54.0,49.2,9.2,-31.4,47,12,1,29.99,29.85,2,0,2,0.00
2013-10-29,81.0,74.5,70.6,63.6,62.0,60.6,77,66,53,29.95,29.88,0,0,0,0.00
2013-10-30,82.1,74.9,69.7,69.5,66.5,63.3,85,76,62,29.94,29.78,8,0,8,0.00
2013-10-31,83.3,75.8,70.4,73.2,69.3,65.3,87,80,71,29.78,29.58,15,3,15,0.40
2013-11-1,76.5,69.0,59.9,67.9,60.9,53.6,88,76,59,29.69,29.56,7,1,7,0.03
2013-11-2,75.1,64.9,56.7,59.9,53.0,46.0,86,67,47,29.93,29.68,14,2,14,0.00
2013-11-3,67.3,59.0,52.9,47.0,44.9,42.1,73,60,43,30.04,29.89,12,2,12,0.00
2013-11-4,74.5,64.9,52.2,61.9,55.9,44.0,81,73,54,30.04,29.90,12,2,12,0.00
2013-11-5,76.9,70.2,66.2,66.2,63.0,58.2,83,78,68,29.98,29.86,15,3,15,0.00
2013-11-6,79.7,72.5,66.6,72.2,67.3,62.3,88,84,75,29.89,29.79,8,1,8,0.05
2013-11-7,70.9,61.9,54.0,67.1,53.3,42.5,89,74,56,30.09,29.83,14,4,14,0.01
2013-11-8,64.3,56.5,50.8,42.8,41.0,37.7,66,57,43,30.16,29.97,14,4,14,0.00
2013-11-9,72.2,61.0,49.5,58.9,51.7,40.2,84,72,62,30.07,29.92,8,1,8,0.00
2013-11-10,74.5,65.8,58.1,60.8,56.4,51.7,85,72,58,30.06,29.67,9,2,9,0.00
2013-11-11,76.0,63.5,54.2,58.8,53.0,48.3,82,70,50,30.04,29.89,7,1,7,0.00
2013-11-12,71.8,59.0,45.7,57.3,49.4,33.4,86,71,57,30.26,29.94,14,3,14,0.00
2013-11-13,55.1,47.0,38.9,34.9,30.9,25.8,63,54,43,30.38,30.22,14,4,14,0.00
2013-11-14,63.5,55.3,45.7,55.5,43.5,30.3,82,65,51,30.23,29.91,8,2,10,0.00
2013-11-15,71.6,64.6,59.9,65.5,59.7,54.5,89,84,78,29.92,29.76,7,2,7,0.13
2013-11-16,78.1,69.4,60.8,70.7,64.7,57.6,92,85,77,29.86,29.72,6,1,9,0.01
2013-11-17,80.6,74.5,70.2,75.3,70.8,67.1,91,88,83,29.77,29.64,7,2,8,0.05
2013-11-18,74.3,67.0,60.5,71.6,61.0,47.6,91,81,63,29.88,29.70,9,1,10,0.69
2013-11-19,63.4,58.4,53.3,48.7,42.9,37.4,66,57,46,29.97,29.84,14,3,14,0.00
2013-11-20,69.5,58.6,46.1,57.7,48.9,38.0,85,71,59,29.95,29.82,7,1,7,0.00
2013-11-21,70.9,65.7,62.3,64.4,61.3,57.3,90,86,80,29.99,29.88,11,3,11,0.00
2013-11-22,78.7,67.9,63.9,71.8,63.6,60.5,90,86,76,30.01,29.90,7,2,11,0.01
2013-11-23,65.9,60.2,50.6,62.2,55.9,42.0,88,86,73,30.13,29.93,13,3,13,0.04
2013-11-24,101.7,51.0,44.6,42.0,33.3,-4.2,73,55,1,30.23,30.09,16,5,16,0.00
2013-11-25,60.1,58.8,57.2,57.8,56.1,54.0,93,91,89,29.83,29.67,10,2,10,0.18
2013-11-26,57.4,49.1,43.6,54.2,45.9,40.1,91,89,86,29.89,29.58,13,3,13,1.49
2013-11-27,49.3,43.7,38.9,40.1,34.5,29.3,88,71,56,30.25,29.89,14,3,14,0.00
2013-11-28,49.0,40.3,34.9,36.1,31.0,27.3,80,70,58,30.36,30.24,7,1,7,0.00
2013-11-29,55.4,42.9,33.5,38.0,33.1,28.3,86,70,46,30.40,30.25,8,1,8,0.00
2013-11-30,64.8,49.3,36.7,49.0,40.5,31.1,86,73,55,30.29,30.08,7,1,7,0.00
2013-12-1,67.7,55.9,45.9,55.3,48.7,40.2,89,77,62,30.14,29.82,7,1,7,0.00
2013-12-2,72.5,62.7,54.9,64.2,56.7,50.0,87,81,73,29.82,29.58,11,2,11,0.05
2013-12-3,75.8,67.7,60.7,69.6,63.7,57.4,92,87,79,29.64,29.54,14,2,14,0.10
2013-12-4,80.1,72.9,68.6,73.3,68.8,65.8,92,87,78,29.74,29.61,13,3,13,0.00
2013-12-5,79.9,74.2,70.9,75.3,70.9,68.1,93,90,85,29.79,29.69,10,3,10,0.01
2013-12-6,79.4,67.8,47.3,74.4,64.0,43.6,93,88,76,30.00,29.71,13,4,13,0.26
2013-12-7,47.2,44.3,43.0,43.6,41.2,39.7,91,89,87,30.14,29.99,9,3,9,0.01
2013-12-8,52.9,49.3,45.0,51.0,46.8,42.6,93,91,91,30.09,29.86,6,1,6,0.02
2013-12-9,62.1,56.4,52.0,57.1,53.2,49.5,93,89,82,29.98,29.87,7,1,7,0.03
2013-12-10,56.0,46.5,41.8,53.4,40.8,36.4,91,81,70,30.22,29.90,12,4,12,0.09
2013-12-11,54.4,49.3,42.8,46.6,42.2,36.3,81,77,70,30.26,30.16,8,2,8,0.00
2013-12-12,54.4,49.6,45.0,46.6,38.4,30.4,79,65,55,30.37,30.20,11,3,11,0.00
2013-12-13,63.5,54.0,42.8,55.5,45.0,29.3,83,72,55,30.21,29.79,7,1,7,0.00
2013-12-14,71.3,63.3,50.6,66.7,59.1,45.1,90,86,82,29.90,29.65,11,2,11,0.14
2013-12-15,51.5,47.2,42.1,45.1,39.7,36.4,82,75,68,30.16,29.90,10,2,10,0.00
2013-12-16,56.2,44.8,36.2,43.2,36.6,31.8,86,74,54,30.23,30.08,6,1,6,0.00
2013-12-17,61.7,47.8,37.3,48.4,38.8,32.8,89,72,50,30.24,30.07,5,0,5,0.00
2013-12-18,65.2,51.3,39.6,49.2,42.0,34.6,89,72,52,30.24,30.06,10,1,10,0.00
2013-12-19,72.9,62.7,50.8,61.9,55.3,44.1,88,77,65,30.06,29.84,13,2,13,0.00
2013-12-20,77.4,70.6,65.5,70.3,65.5,59.4,89,84,78,29.89,29.73,14,3,14,0.00
2013-12-21,77.8,72.8,68.9,71.8,68.9,65.9,91,88,81,29.73,29.52,17,5,17,0.00
2013-12-22,72.4,60.9,56.5,69.3,57.5,53.3,91,88,84,29.97,29.59,10,2,10,1.68
2013-12-23,56.5,47.8,39.4,53.9,42.8,33.5,91,83,74,30.33,29.92,11,3,11,0.04
2013-12-24,50.9,42.2,36.5,38.4,34.0,30.9,82,73,60,30.41,30.22,10,2,10,0.00
2013-12-25,49.3,43.7,37.1,36.8,33.4,29.8,78,67,61,30.27,30.16,8,2,8,0.00
2013-12-26,54.7,48.1,42.8,39.6,36.4,33.0,74,64,51,30.26,30.11,8,1,8,0.00
2013-12-27,58.9,51.8,44.5,43.4,39.9,36.6,77,64,50,30.26,30.10,9,2,9,0.00
2013-12-28,52.2,49.6,46.8,47.8,44.8,40.7,89,84,65,30.12,29.80,7,2,7,1.17
2013-12-29,59.2,51.8,46.1,49.3,46.0,41.4,89,81,66,29.98,29.83,7,1,7,0.00
2013-12-30,59.0,51.2,44.3,52.2,46.2,40.1,89,83,75,30.17,29.95,6,1,6,0.00
2013-12-31,51.1,46.2,44.6,46.5,41.2,39.2,88,83,79,30.28,30.15,7,2,7,0.12
2014-1-1,62.1,53.5,45.0,58.1,50.1,41.7,91,88,85,30.18,29.85,4,0,4,0.06
2014-1-2,58.9,53.3,40.7,55.0,46.6,29.3,92,79,59,30.22,29.79,13,3,13,0.32